x

Settlement Point, Gbi (spgf1) Weather Station

5:00pm - Mon 22nd Sep 2014 All times are EDT. -4 hours from GMT.

  • Wind
    6mph, 7mph gusts
  • Air Temp 83°f
  • Sea Pressure 1015.2mb
  • Settlement Point, Gbi
  • Settlement Point, Gbi

More Historic Weather Station data

Upgrade to MSW Pro to gain access to the past 30 days of data for over 8000 Wavebouys and Weather Stations around the globe.

Join Pro

Comparision Forecast

View Surf forecast
   
Mon 09/22 5:00pm 6 7 mph 1015.2mb 83f
4:00pm 7 8 mph 1015.8mb 84f
3:00pm 5
mph
1016.2mb 83f
2:00pm 3
mph
1017.2mb 84f
1:00pm 5 6 mph 1017.7mb 84f
12:00pm 1 2 mph 1018mb 83f
11:00am 1
mph
1018.8mb 83f
10:00am 3
mph
1018.7mb 83f
9:00am  -  1 mph 1018.4mb 84f
8:00am  -  mph 1017.6mb 83f
7:00am  -  1 mph 1017mb 81f
6:00am 1 2 mph 1016.1mb 81f
5:00am 3
mph
1016.1mb 81f
4:00am  -  2 mph 1015.9mb 81f
3:00am 2
mph
1016.2mb 81f
2:00am  -  1 mph 1016.8mb 81f
1:00am 1
mph
1017.3mb 80f
12:00am 2
mph
1017.6mb 81f
Sun 09/21 11:00pm 1 2 mph 1018mb 81f
10:00pm 3 5 mph 1017.9mb 82f
9:00pm 5 7 mph 1017.1mb 81f
8:00pm 5
mph
1016.9mb 82f
7:00pm 2 3 mph 1016.4mb 82f
6:00pm 2 3 mph 1016.1mb 82f
5:00pm 5 6 mph 1015.7mb 82f
4:00pm 3 5 mph 1015.4mb 83f
3:00pm  -  1 mph 1016mb 83f
2:00pm 7 8 mph 1016.3mb 82f
1:00pm 7 8 mph 1016.6mb 82f
12:00pm 5 6 mph 1017mb 82f
11:00am 7 8 mph 1017.1mb 82f
10:00am 8 9 mph 1016.9mb 82f
9:00am 8 9 mph 1016.7mb 81f
8:00am 6
mph
1016.2mb 81f
7:00am 8 9 mph 1015.6mb 81f
6:00am 11 13 mph 1014.8mb 81f
5:00am 14 15 mph 1014.2mb 81f
4:00am 14 15 mph 1014.2mb 81f
3:00am 15 16 mph 1014.2mb 81f
2:00am 14 16 mph 1014.5mb 81f
1:00am 11 13 mph 1015mb 81f
12:00am 11 13 mph 1015.3mb 81f
Sat 09/20 11:00pm 13 15 mph 1015.1mb 81f
10:00pm 14 16 mph 1014.6mb 80f
9:00pm 11 13 mph 1014.3mb 80f
8:00pm 13 14 mph 1013.9mb 79f
7:00pm 9 10 mph 1014.3mb 75f
6:00pm 21 26 mph 1014.1mb 74f
5:00pm 17 18 mph 1012.7mb 84f
4:00pm 13 15 mph 1011.9mb 83f
3:00pm 16 17 mph 1012.6mb 84f
2:00pm 6 7 mph 1013mb 82f
1:00pm 3 5 mph 1014mb 82f
12:00pm 5 6 mph 1014.3mb 80f
11:00am 3 5 mph 1014.9mb 77f
10:00am 13 22 mph 1015mb 76f
9:00am 15 24 mph 1014.8mb 76f
8:00am 11 14 mph 1014mb 78f
7:00am 11 13 mph 1013.6mb 82f
6:00am 9 10 mph 1013.3mb 81f
5:00am 8 9 mph 1013.1mb 81f
4:00am 8 9 mph 1013mb 80f
3:00am 7 8 mph 1013.6mb 79f
2:00am 7 8 mph 1014.1mb 79f
1:00am 9 10 mph 1014.6mb 78f
12:00am 11 13 mph 1015.6mb 76f
Fri 09/19 11:00pm 7 10 mph 1015.5mb 77f
10:00pm 7
mph
1015.1mb 76f
9:00pm 8
mph
1015.2mb 75f
8:00pm 3 5 mph 1015.2mb 76f
7:00pm 13 15 mph 1014.4mb 76f
6:00pm 9 10 mph 1013.7mb 78f
5:00pm 10 11 mph 1014.4mb 76f
4:00pm 15 17 mph 1014.3mb 76f
3:00pm 21 24 mph 1014.1mb 77f
2:00pm 1 2 mph 1014.2mb 83f
1:00pm 3 5 mph 1014.8mb 83f
12:00pm 1 2 mph 1015.2mb 83f
11:00am 3 5 mph 1015.7mb 82f
10:00am 6 7 mph 1015.6mb 81f
9:00am 2 3 mph 1015.3mb 80f
8:00am 2
mph
1015.1mb 77f
7:00am 2
mph
1014.2mb 82f
6:00am 2
mph
1013.6mb 81f
5:00am 3
mph
1013.4mb 81f
4:00am 3
mph
1013mb 82f
3:00am 7 8 mph 1013.3mb 81f
2:00am 1 2 mph 1013.7mb 81f
1:00am 2 3 mph 1014.3mb 82f
12:00am 5 6 mph 1014.3mb 82f
Thu 09/18 11:00pm 6
mph
1014.7mb 82f